Time;durP1;ratioP1;P1;durP2;ratioP2;P2;SDS_P1;SDS_P2;PMS_P1;PMS_P2;Temp;Humidity;BMP_temperature;BMP_pressure;BME280_temperature;BME280_humidity;BME280_pressure;Samples;Min_cycle;Max_cycle;Signal;HPM_P1;HPM_P2
2024/01/18 00:01:05;;;;;;;17.20;9.47;;;0.90;99.90;;;;;;5015144;28;20473;-68
2024/01/18 00:03:32;;;;;;;15.40;9.67;;;0.90;99.90;;;;;;5008264;28;20446;-67
2024/01/18 00:05:59;;;;;;;14.33;9.77;;;0.90;99.90;;;;;;4996023;28;20450;-68
2024/01/18 00:08:26;;;;;;;15.80;11.10;;;0.90;99.90;;;;;;4996084;28;20475;-67
2024/01/18 00:10:52;;;;;;;19.43;9.87;;;0.80;99.90;;;;;;4996277;28;20454;-66
2024/01/18 00:13:19;;;;;;;18.50;10.60;;;0.80;99.90;;;;;;4996393;28;20461;-66
2024/01/18 00:15:46;;;;;;;16.10;10.10;;;0.90;99.90;;;;;;4996130;28;20449;-67
2024/01/18 00:18:14;;;;;;;15.80;10.43;;;0.80;99.90;;;;;;4995774;28;20483;-67
2024/01/18 00:20:41;;;;;;;17.77;9.17;;;0.90;99.90;;;;;;4995811;28;20466;-68
2024/01/18 00:23:10;;;;;;;17.43;9.93;;;0.80;99.90;;;;;;4995997;28;20450;-67
2024/01/18 00:25:39;;;;;;;18.70;11.27;;;0.90;99.90;;;;;;5003844;28;20445;-67
2024/01/18 00:28:06;;;;;;;19.43;9.13;;;0.90;99.90;;;;;;4994654;28;20460;-66
2024/01/18 00:30:33;;;;;;;18.33;11.20;;;0.90;99.90;;;;;;4994617;28;20492;-66
2024/01/18 00:33:00;;;;;;;18.87;10.40;;;0.90;99.90;;;;;;4994838;28;20446;-67
2024/01/18 00:35:28;;;;;;;13.77;8.67;;;0.90;99.90;;;;;;4995460;28;20470;-66
2024/01/18 00:37:55;;;;;;;20.33;9.80;;;0.90;99.90;;;;;;4994668;28;20492;-66
2024/01/18 00:40:22;;;;;;;12.60;9.23;;;0.90;99.90;;;;;;4994083;28;20463;-67
2024/01/18 00:42:48;;;;;;;22.37;9.80;;;0.80;99.90;;;;;;4994637;28;20439;-67
2024/01/18 00:45:15;;;;;;;17.07;10.20;;;0.90;99.90;;;;;;4994419;28;20443;-67
2024/01/18 00:47:45;;;;;;;16.63;10.07;;;0.80;99.90;;;;;;4994062;28;20482;-66
2024/01/18 00:50:12;;;;;;;15.03;10.60;;;0.90;99.90;;;;;;4997200;28;20474;-67
2024/01/18 00:52:40;;;;;;;12.87;9.90;;;0.90;99.90;;;;;;5015253;28;20445;-69
2024/01/18 00:55:10;;;;;;;18.37;8.63;;;0.90;99.90;;;;;;5015202;28;20473;-67
2024/01/18 00:57:39;;;;;;;16.13;10.07;;;0.80;99.90;;;;;;5014634;28;20549;-66
2024/01/18 01:00:06;;;;;;;14.27;9.63;;;0.70;99.90;;;;;;5014220;28;20505;-66
2024/01/18 01:02:33;;;;;;;21.43;9.33;;;0.70;99.90;;;;;;5014599;28;20498;-67
2024/01/18 01:05:00;;;;;;;16.27;9.90;;;0.70;99.90;;;;;;5014631;28;20464;-68
2024/01/18 01:07:27;;;;;;;19.00;10.60;;;0.70;99.90;;;;;;5014495;28;20469;-68
2024/01/18 01:09:58;;;;;;;25.83;10.80;;;0.70;99.90;;;;;;5015039;28;20452;-67
2024/01/18 01:12:34;;;;;;;30.10;10.70;;;0.60;99.90;;;;;;5014678;28;20446;-67
2024/01/18 01:15:01;;;;;;;14.47;9.20;;;0.60;99.90;;;;;;5013553;28;20544;-67
2024/01/18 01:17:28;;;;;;;17.67;10.40;;;0.60;99.90;;;;;;5014822;28;20485;-66
2024/01/18 01:19:55;;;;;;;18.90;11.20;;;0.60;99.90;;;;;;5015090;28;20511;-66
2024/01/18 01:22:22;;;;;;;15.77;10.87;;;0.60;99.90;;;;;;5015477;28;20451;-67
2024/01/18 01:24:52;;;;;;;15.57;9.53;;;0.60;99.90;;;;;;5016359;28;20453;-67
2024/01/18 01:27:20;;;;;;;17.53;10.00;;;0.60;99.90;;;;;;5016246;28;20466;-66
2024/01/18 01:29:47;;;;;;;20.50;9.43;;;0.70;99.90;;;;;;5016976;28;20432;-67
2024/01/18 01:32:14;;;;;;;16.13;9.50;;;0.70;99.90;;;;;;5016637;28;20442;-66
2024/01/18 01:34:41;;;;;;;18.77;9.00;;;0.80;99.90;;;;;;5016303;28;20461;-67
2024/01/18 01:37:07;;;;;;;18.87;11.10;;;0.70;99.90;;;;;;5016540;28;20469;-66
2024/01/18 01:39:37;;;;;;;17.93;9.30;;;0.70;99.90;;;;;;5015221;28;20453;-67
2024/01/18 01:42:07;;;;;;;14.83;9.73;;;0.70;99.90;;;;;;5015998;28;20481;-66
2024/01/18 01:44:35;;;;;;;19.53;9.77;;;0.70;99.90;;;;;;5015038;28;20437;-67
2024/01/18 01:47:07;;;;;;;15.07;8.40;;;0.70;99.90;;;;;;5013864;28;20503;-67
2024/01/18 01:49:34;;;;;;;21.17;9.83;;;0.70;99.90;;;;;;5014217;28;20448;-66
2024/01/18 01:52:08;;;;;;;17.17;9.90;;;0.70;99.90;;;;;;5014839;28;20516;-66
2024/01/18 01:54:37;;;;;;;17.77;9.97;;;0.70;99.90;;;;;;5014264;28;20471;-66
2024/01/18 01:57:06;;;;;;;14.93;10.60;;;0.60;99.90;;;;;;5012101;28;20480;-67
2024/01/18 01:59:35;;;;;;;18.27;11.40;;;0.60;99.90;;;;;;5014541;28;20480;-65
2024/01/18 02:02:09;;;;;;;17.43;9.60;;;0.60;99.90;;;;;;5014865;28;20466;-67
2024/01/18 02:04:37;;;;;;;18.70;9.63;;;0.60;99.90;;;;;;5015096;28;20477;-67
2024/01/18 02:07:04;;;;;;;15.83;8.60;;;0.60;99.90;;;;;;5014658;28;20479;-66
2024/01/18 02:09:31;;;;;;;16.80;10.20;;;0.70;99.90;;;;;;5015009;28;20456;-66
2024/01/18 02:11:59;;;;;;;20.87;9.80;;;0.70;99.90;;;;;;5014914;28;20432;-66
2024/01/18 02:14:29;;;;;;;12.70;8.73;;;0.60;99.90;;;;;;5014694;28;20480;-67
2024/01/18 02:17:06;;;;;;;18.10;11.50;;;0.70;99.90;;;;;;5015003;28;20596;-65
2024/01/18 02:19:33;;;;;;;12.93;8.20;;;0.70;99.90;;;;;;5015541;28;20434;-67
2024/01/18 02:22:02;;;;;;;16.47;9.50;;;0.70;99.90;;;;;;5014347;28;20456;-67
2024/01/18 02:24:33;;;;;;;15.50;8.80;;;0.70;99.90;;;;;;5015188;28;20449;-67
2024/01/18 02:27:01;;;;;;;20.17;10.23;;;0.70;99.90;;;;;;5017383;28;20481;-64
2024/01/18 02:29:28;;;;;;;19.00;10.90;;;0.70;99.90;;;;;;5018136;28;20449;-66
2024/01/18 02:32:00;;;;;;;17.10;9.30;;;0.70;99.90;;;;;;5017744;28;20452;-67
2024/01/18 02:34:27;;;;;;;25.03;10.20;;;0.70;99.90;;;;;;5017753;28;20465;-66
2024/01/18 02:36:57;;;;;;;19.70;9.63;;;0.70;99.90;;;;;;5017753;28;20498;-67
2024/01/18 02:39:26;;;;;;;20.07;9.20;;;0.70;99.90;;;;;;5017599;28;20429;-67
2024/01/18 02:41:54;;;;;;;16.40;10.87;;;0.70;99.90;;;;;;5017435;28;20462;-66
2024/01/18 02:44:22;;;;;;;23.20;10.30;;;0.80;99.90;;;;;;5017591;28;20480;-66
2024/01/18 02:46:49;;;;;;;17.63;9.63;;;0.70;99.90;;;;;;5017503;28;20489;-67
2024/01/18 02:49:16;;;;;;;17.13;9.77;;;0.70;99.90;;;;;;5017569;28;20505;-67
2024/01/18 02:51:44;;;;;;;25.03;9.50;;;0.80;99.90;;;;;;5017215;28;20449;-67
2024/01/18 02:54:13;;;;;;;20.60;9.17;;;0.80;99.90;;;;;;5017019;28;20514;-65
2024/01/18 02:56:43;;;;;;;16.50;10.27;;;0.80;99.90;;;;;;5017184;28;20446;-66
2024/01/18 02:59:10;;;;;;;15.77;9.03;;;0.80;99.90;;;;;;5017191;28;20477;-66
2024/01/18 03:01:41;;;;;;;21.70;10.47;;;0.80;99.90;;;;;;5016904;28;20469;-67
2024/01/18 03:04:09;;;;;;;16.10;9.97;;;0.80;99.90;;;;;;5016646;28;20456;-66
2024/01/18 03:06:36;;;;;;;19.03;9.43;;;0.80;99.90;;;;;;5016383;28;20480;-66
2024/01/18 03:09:03;;;;;;;22.73;9.80;;;0.80;99.90;;;;;;5014888;28;20439;-66
2024/01/18 03:11:30;;;;;;;20.80;10.27;;;0.80;99.90;;;;;;5013971;28;20462;-67
2024/01/18 03:13:57;;;;;;;16.60;9.90;;;0.80;99.90;;;;;;5016262;28;20469;-66
2024/01/18 03:16:24;;;;;;;19.57;9.90;;;0.80;99.90;;;;;;5016755;28;20444;-66
2024/01/18 03:18:52;;;;;;;15.30;8.53;;;0.80;99.90;;;;;;5015944;28;20514;-66
2024/01/18 03:21:19;;;;;;;20.67;10.73;;;0.70;99.90;;;;;;5016636;28;20450;-66
2024/01/18 03:23:46;;;;;;;19.10;9.73;;;0.70;99.90;;;;;;5016602;28;20445;-66
2024/01/18 03:26:13;;;;;;;16.53;10.17;;;0.70;99.90;;;;;;5016747;28;20474;-66
2024/01/18 03:28:40;;;;;;;19.73;9.60;;;0.80;99.90;;;;;;5016847;28;20449;-67
2024/01/18 03:31:11;;;;;;;18.30;10.40;;;0.70;99.90;;;;;;5016064;28;20454;-66
2024/01/18 03:33:38;;;;;;;19.40;11.93;;;0.70;99.90;;;;;;5017767;28;20459;-65
2024/01/18 03:36:07;;;;;;;14.57;8.80;;;0.70;99.90;;;;;;5018639;28;20476;-66
2024/01/18 03:38:34;;;;;;;21.77;10.50;;;0.70;99.90;;;;;;5018912;28;20477;-66
2024/01/18 03:41:00;;;;;;;18.37;11.57;;;0.70;99.90;;;;;;5019129;28;20446;-67
2024/01/18 03:43:27;;;;;;;25.67;10.97;;;0.60;99.90;;;;;;5018908;28;20464;-67
2024/01/18 03:45:54;;;;;;;17.40;10.37;;;0.50;99.90;;;;;;5018166;28;20540;-67
2024/01/18 03:48:21;;;;;;;20.23;10.87;;;0.50;99.90;;;;;;5016945;28;20444;-65
2024/01/18 03:50:48;;;;;;;19.47;11.30;;;0.50;99.90;;;;;;5016168;28;20456;-67
2024/01/18 03:53:16;;;;;;;20.93;11.80;;;0.50;99.90;;;;;;5016215;28;20508;-67
2024/01/18 03:55:43;;;;;;;18.77;10.97;;;0.60;99.90;;;;;;5010242;28;20488;-66
2024/01/18 03:58:10;;;;;;;17.80;10.13;;;0.60;99.90;;;;;;5016460;28;20498;-65
2024/01/18 04:00:40;;;;;;;19.50;11.10;;;0.60;99.90;;;;;;5016686;28;20489;-65
2024/01/18 04:03:07;;;;;;;20.33;12.00;;;0.60;99.90;;;;;;5016940;28;20472;-66
2024/01/18 04:05:33;;;;;;;24.40;12.27;;;0.60;99.90;;;;;;5016184;28;20448;-65
2024/01/18 04:08:00;;;;;;;17.00;10.30;;;0.60;99.90;;;;;;5015667;28;20449;-65
2024/01/18 04:10:30;;;;;;;14.97;8.90;;;0.60;99.90;;;;;;5015157;28;20445;-66
2024/01/18 04:12:57;;;;;;;18.63;10.87;;;0.60;99.90;;;;;;5015472;28;20474;-66
2024/01/18 04:15:24;;;;;;;19.20;10.40;;;0.60;99.90;;;;;;5016096;28;20450;-66
2024/01/18 04:17:51;;;;;;;18.30;10.60;;;0.60;99.90;;;;;;5015593;28;20510;-66
2024/01/18 04:20:21;;;;;;;17.70;10.43;;;0.60;99.90;;;;;;5015506;28;20462;-63
2024/01/18 04:22:48;;;;;;;23.40;10.80;;;0.60;99.90;;;;;;5014911;28;20430;-67
2024/01/18 04:25:15;;;;;;;17.17;10.90;;;0.60;99.90;;;;;;5015469;28;20562;-67
2024/01/18 04:27:46;;;;;;;20.17;10.80;;;0.60;99.90;;;;;;5015162;28;20669;-66
2024/01/18 04:30:14;;;;;;;18.67;11.10;;;0.60;99.90;;;;;;5015079;28;20419;-66
2024/01/18 04:32:41;;;;;;;24.93;11.70;;;0.60;99.90;;;;;;5015258;28;20453;-65
2024/01/18 04:35:08;;;;;;;18.10;10.77;;;0.60;99.90;;;;;;5014990;28;20476;-67
2024/01/18 04:37:35;;;;;;;16.77;11.13;;;0.60;99.90;;;;;;5015200;28;21019;-67
2024/01/18 04:40:02;;;;;;;20.00;10.60;;;0.50;99.90;;;;;;5015106;28;20942;-66
2024/01/18 04:42:29;;;;;;;20.43;11.20;;;0.50;99.90;;;;;;5015104;28;20443;-66
2024/01/18 04:45:01;;;;;;;17.10;10.27;;;0.50;99.90;;;;;;5015718;28;20496;-65
2024/01/18 04:47:30;;;;;;;17.07;10.50;;;0.50;99.90;;;;;;5015996;28;20464;-67
2024/01/18 04:49:57;;;;;;;15.87;11.63;;;0.50;99.90;;;;;;5014576;28;20552;-66
2024/01/18 04:52:24;;;;;;;18.70;10.53;;;0.50;99.90;;;;;;5016059;28;20494;-66
2024/01/18 04:54:51;;;;;;;22.50;10.80;;;0.50;99.90;;;;;;5015885;28;20452;-66
2024/01/18 04:57:18;;;;;;;22.23;11.43;;;0.50;99.90;;;;;;5015385;28;20444;-67
2024/01/18 04:59:45;;;;;;;19.20;11.27;;;0.50;99.90;;;;;;5015624;28;20453;-66
2024/01/18 05:02:13;;;;;;;34.17;12.50;;;0.50;99.90;;;;;;5015147;28;20468;-66
2024/01/18 05:04:40;;;;;;;19.90;12.10;;;0.50;99.90;;;;;;5015271;28;20440;-66
2024/01/18 05:07:07;;;;;;;19.53;11.10;;;0.50;99.90;;;;;;5015306;28;20530;-66
2024/01/18 05:09:34;;;;;;;20.90;12.10;;;0.50;99.90;;;;;;5015234;28;20498;-66
2024/01/18 05:12:01;;;;;;;15.70;9.67;;;0.40;99.90;;;;;;5015383;28;20459;-66
2024/01/18 05:14:28;;;;;;;23.50;11.47;;;0.40;99.90;;;;;;5014522;28;20491;-66
2024/01/18 05:17:03;;;;;;;24.53;10.70;;;0.40;99.90;;;;;;5014701;28;20445;-66
2024/01/18 05:19:34;;;;;;;24.63;12.83;;;0.40;99.90;;;;;;5014506;28;20462;-67
2024/01/18 05:22:00;;;;;;;22.73;11.10;;;0.40;99.90;;;;;;5014737;28;20472;-66
2024/01/18 05:24:27;;;;;;;25.17;13.00;;;0.40;99.90;;;;;;5014527;28;20521;-66
2024/01/18 05:26:55;;;;;;;19.30;10.67;;;0.40;99.90;;;;;;5014850;28;20849;-66
2024/01/18 05:29:21;;;;;;;26.67;12.50;;;0.40;99.90;;;;;;5015954;28;20493;-64
2024/01/18 05:31:48;;;;;;;23.13;12.40;;;0.40;99.90;;;;;;5016300;28;20473;-65
2024/01/18 05:34:15;;;;;;;27.07;12.33;;;0.40;99.90;;;;;;5016797;28;20457;-65
2024/01/18 05:36:43;;;;;;;18.60;10.97;;;0.40;99.90;;;;;;5017190;28;20433;-66
2024/01/18 05:39:14;;;;;;;18.50;10.90;;;0.50;99.90;;;;;;5016367;28;20490;-64
2024/01/18 05:41:41;;;;;;;20.93;13.33;;;0.50;99.90;;;;;;5017176;28;20411;-66
2024/01/18 05:44:09;;;;;;;25.70;12.57;;;0.40;99.90;;;;;;5017281;28;20465;-61
2024/01/18 05:46:38;;;;;;;17.20;9.77;;;0.40;99.90;;;;;;5017037;28;20441;-62
2024/01/18 05:49:05;;;;;;;23.40;10.97;;;0.40;99.90;;;;;;5017166;28;20449;-66
2024/01/18 05:51:31;;;;;;;19.57;12.37;;;0.40;99.90;;;;;;5016853;28;20966;-63
2024/01/18 05:54:01;;;;;;;23.60;11.20;;;0.40;99.90;;;;;;5016823;28;20449;-64
2024/01/18 05:56:28;;;;;;;22.20;11.67;;;0.40;99.90;;;;;;5013580;28;20484;-65
2024/01/18 05:58:55;;;;;;;19.33;10.97;;;0.40;99.90;;;;;;5015997;28;20480;-66
2024/01/18 06:01:22;;;;;;;20.47;11.70;;;0.40;99.90;;;;;;5017770;28;20548;-64
2024/01/18 06:03:49;;;;;;;19.37;11.57;;;0.40;99.90;;;;;;5019978;28;20480;-65
2024/01/18 06:06:18;;;;;;;19.07;11.67;;;0.30;99.90;;;;;;5019385;28;20462;-65
2024/01/18 06:08:44;;;;;;;23.80;12.27;;;0.30;99.90;;;;;;5019179;28;20487;-64
2024/01/18 06:11:14;;;;;;;27.87;11.40;;;0.30;99.90;;;;;;5019596;28;20445;-66
2024/01/18 06:13:41;;;;;;;23.97;12.17;;;0.30;99.90;;;;;;5019861;28;20464;-65
2024/01/18 06:16:10;;;;;;;19.00;10.00;;;0.40;99.90;;;;;;5019368;28;20447;-65
2024/01/18 06:18:42;;;;;;;19.50;12.57;;;0.40;99.90;;;;;;5019413;28;20471;-64
2024/01/18 06:21:11;;;;;;;28.20;13.03;;;0.40;99.90;;;;;;5019096;28;20497;-66
2024/01/18 06:23:38;;;;;;;24.07;13.00;;;0.50;99.90;;;;;;5019704;28;20441;-65
2024/01/18 06:26:09;;;;;;;24.27;12.80;;;0.50;99.90;;;;;;5019305;28;20441;-66
2024/01/18 06:28:39;;;;;;;29.43;13.27;;;0.50;99.90;;;;;;5019996;28;20453;-67
2024/01/18 06:31:06;;;;;;;25.40;12.63;;;0.40;99.90;;;;;;5019116;28;20437;-67
2024/01/18 06:33:33;;;;;;;20.60;11.60;;;0.40;99.90;;;;;;5018785;28;20478;-65
2024/01/18 06:36:00;;;;;;;23.37;12.40;;;0.40;99.90;;;;;;5019309;28;20492;-65
2024/01/18 06:38:27;;;;;;;23.70;11.27;;;0.40;99.90;;;;;;5019082;28;20471;-64
2024/01/18 06:40:58;;;;;;;24.37;12.33;;;0.40;99.90;;;;;;5019581;28;20453;-64
2024/01/18 06:43:28;;;;;;;25.40;11.83;;;0.40;99.90;;;;;;5019789;28;20462;-65
2024/01/18 06:45:57;;;;;;;25.20;14.17;;;0.40;99.90;;;;;;5019422;28;20478;-64
2024/01/18 06:48:24;;;;;;;21.13;11.53;;;0.40;99.90;;;;;;5019160;28;20449;-66
2024/01/18 06:50:51;;;;;;;21.93;12.60;;;0.40;99.90;;;;;;5019577;28;20429;-66
2024/01/18 06:53:18;;;;;;;21.57;12.73;;;0.40;99.90;;;;;;5019166;28;20456;-65
2024/01/18 06:55:45;;;;;;;18.00;10.80;;;0.40;99.90;;;;;;5019287;28;20444;-66
2024/01/18 06:58:17;;;;;;;16.93;10.63;;;0.40;99.90;;;;;;5019364;28;20507;-65
2024/01/18 07:00:47;;;;;;;22.70;11.20;;;0.30;99.90;;;;;;5020109;28;20441;-64
2024/01/18 07:03:15;;;;;;;22.70;12.70;;;0.30;99.90;;;;;;5019101;28;20466;-66
2024/01/18 07:05:42;;;;;;;21.83;12.77;;;0.30;99.90;;;;;;5019477;28;20458;-65
2024/01/18 07:08:10;;;;;;;25.07;12.97;;;0.30;99.90;;;;;;5018948;28;20554;-66
2024/01/18 07:10:37;;;;;;;22.63;11.63;;;0.30;99.90;;;;;;5019454;28;20477;-65
2024/01/18 07:13:04;;;;;;;20.53;12.47;;;0.30;99.90;;;;;;5007110;28;20446;-65
2024/01/18 07:15:33;;;;;;;22.10;11.90;;;0.20;99.90;;;;;;4999424;28;20470;-63
2024/01/18 07:18:00;;;;;;;18.07;12.23;;;0.20;99.90;;;;;;4999059;28;20470;-64
2024/01/18 07:20:31;;;;;;;23.13;13.60;;;0.20;99.90;;;;;;4998495;28;20463;-65
2024/01/18 07:23:00;;;;;;;22.10;11.27;;;0.10;99.90;;;;;;5000384;28;20477;-64
2024/01/18 07:25:27;;;;;;;19.50;12.40;;;0.20;99.90;;;;;;5014827;28;20462;-65
2024/01/18 07:27:57;;;;;;;28.80;14.07;;;0.20;99.90;;;;;;4998437;28;20482;-65
2024/01/18 07:30:24;;;;;;;21.80;12.90;;;0.20;99.90;;;;;;4998362;28;20460;-64
2024/01/18 07:32:54;;;;;;;20.87;12.67;;;0.20;99.90;;;;;;4998999;28;20431;-66
2024/01/18 07:35:21;;;;;;;24.53;12.33;;;0.20;99.90;;;;;;4998347;28;20459;-64
2024/01/18 07:37:49;;;;;;;22.30;12.87;;;0.20;99.90;;;;;;5004928;28;20469;-64
2024/01/18 07:40:16;;;;;;;19.43;12.07;;;0.20;99.90;;;;;;5016849;28;20529;-66
2024/01/18 07:42:45;;;;;;;25.07;14.27;;;0.20;99.90;;;;;;4999629;28;20470;-65
2024/01/18 07:45:14;;;;;;;26.33;13.53;;;0.20;99.90;;;;;;4998323;28;20478;-65
2024/01/18 07:47:47;;;;;;;25.57;14.83;;;0.20;99.90;;;;;;5013583;28;20450;-64
2024/01/18 07:50:14;;;;;;;22.97;11.00;;;0.10;99.90;;;;;;5018009;28;20421;-63
2024/01/18 07:52:41;;;;;;;17.97;11.73;;;0.10;99.90;;;;;;5006845;28;20436;-64
2024/01/18 07:55:09;;;;;;;20.27;11.57;;;0.20;99.90;;;;;;5017313;28;20426;-65
2024/01/18 07:57:36;;;;;;;18.77;12.40;;;0.20;99.90;;;;;;5009517;28;20478;-64
2024/01/18 08:00:04;;;;;;;25.00;14.47;;;0.20;99.90;;;;;;4998720;28;20497;-64
2024/01/18 08:02:31;;;;;;;21.03;13.80;;;0.30;99.90;;;;;;5009802;28;20441;-63
2024/01/18 08:04:58;;;;;;;24.73;13.47;;;0.30;99.90;;;;;;5003416;28;20447;-64
2024/01/18 08:07:25;;;;;;;21.70;13.80;;;0.30;99.90;;;;;;4998016;28;20548;-65
2024/01/18 08:09:54;;;;;;;19.93;11.43;;;0.20;99.90;;;;;;5006536;28;20484;-66
2024/01/18 08:12:22;;;;;;;21.30;12.40;;;0.20;99.90;;;;;;5006358;28;20458;-65
2024/01/18 08:14:49;;;;;;;21.13;13.53;;;0.30;99.90;;;;;;4976663;28;20533;-66
2024/01/18 08:17:16;;;;;;;22.63;14.20;;;0.30;99.90;;;;;;4976573;28;20474;-65
2024/01/18 08:19:43;;;;;;;20.27;12.40;;;0.40;99.90;;;;;;4976840;28;20481;-66
2024/01/18 08:22:11;;;;;;;27.23;14.50;;;0.30;99.90;;;;;;4976753;28;20497;-66
2024/01/18 08:24:39;;;;;;;23.20;12.53;;;0.40;99.90;;;;;;4976343;28;20533;-65
2024/01/18 08:27:06;;;;;;;26.40;14.40;;;0.40;99.90;;;;;;4976719;28;20470;-65
2024/01/18 08:29:34;;;;;;;23.37;12.40;;;0.50;99.90;;;;;;4976689;28;20489;-65
2024/01/18 08:32:02;;;;;;;29.93;15.30;;;0.50;99.90;;;;;;4976619;28;20830;-66
2024/01/18 08:34:28;;;;;;;27.97;14.73;;;0.50;99.90;;;;;;4976291;28;20484;-66
2024/01/18 08:36:55;;;;;;;23.73;13.33;;;0.60;99.90;;;;;;4976732;28;20486;-66
2024/01/18 08:39:22;;;;;;;29.50;13.97;;;0.70;99.90;;;;;;4991536;28;20483;-65
2024/01/18 08:41:49;;;;;;;21.43;13.20;;;0.70;99.90;;;;;;5001409;28;20924;-65
2024/01/18 08:44:16;;;;;;;24.80;15.03;;;0.80;99.90;;;;;;5003950;28;20540;-66
2024/01/18 08:46:44;;;;;;;20.90;13.23;;;0.90;99.90;;;;;;5003594;28;20558;-67
2024/01/18 08:49:11;;;;;;;19.60;12.77;;;1.00;99.90;;;;;;5006361;28;20543;-65
2024/01/18 08:51:38;;;;;;;28.10;15.43;;;1.00;99.90;;;;;;5005359;28;20560;-66
2024/01/18 08:54:06;;;;;;;28.43;14.87;;;1.10;99.90;;;;;;4998333;28;20437;-66
2024/01/18 08:56:32;;;;;;;31.77;14.27;;;1.20;99.90;;;;;;4995461;28;20748;-65
2024/01/18 08:59:00;;;;;;;25.43;13.83;;;1.20;99.90;;;;;;5007364;28;20586;-65
2024/01/18 09:01:26;;;;;;;22.87;13.63;;;1.20;99.90;;;;;;5017454;28;20800;-64
2024/01/18 09:03:55;;;;;;;26.03;15.00;;;1.30;99.90;;;;;;5001224;28;20453;-65
2024/01/18 09:06:21;;;;;;;27.27;15.13;;;1.30;99.90;;;;;;5024858;28;20464;-65
2024/01/18 09:08:50;;;;;;;26.03;14.00;;;1.40;99.90;;;;;;5017303;28;20431;-64
2024/01/18 09:11:17;;;;;;;24.10;13.63;;;1.40;99.90;;;;;;5013185;28;20484;-66
2024/01/18 09:13:45;;;;;;;27.57;15.37;;;1.50;99.90;;;;;;5008714;28;20514;-65
2024/01/18 09:16:21;;;;;;;32.90;13.93;;;1.50;99.90;;;;;;5001734;28;20461;-64
2024/01/18 09:18:48;;;;;;;27.90;14.83;;;1.60;99.90;;;;;;4995199;28;20452;-65
2024/01/18 09:21:16;;;;;;;22.07;13.20;;;1.60;99.90;;;;;;5008401;28;20464;-67
2024/01/18 09:23:43;;;;;;;23.90;14.23;;;1.70;99.90;;;;;;5014470;28;20463;-64
2024/01/18 09:26:10;;;;;;;25.17;14.43;;;1.80;99.90;;;;;;5015187;28;20427;-64
2024/01/18 09:28:37;;;;;;;25.10;14.13;;;1.70;99.90;;;;;;5015016;28;20475;-65
2024/01/18 09:31:04;;;;;;;21.10;13.70;;;1.80;99.90;;;;;;5015022;28;20478;-66
2024/01/18 09:33:32;;;;;;;27.10;14.53;;;1.80;99.90;;;;;;5013128;28;20483;-65
2024/01/18 09:36:14;;;;;;;33.07;15.57;;;1.90;99.90;;;;;;5013053;28;20512;-65
2024/01/18 09:38:42;;;;;;;29.60;15.00;;;1.90;99.90;;;;;;5010497;28;20455;-63
2024/01/18 09:41:11;;;;;;;26.53;15.47;;;1.90;99.90;;;;;;5019162;28;20470;-65
2024/01/18 09:43:39;;;;;;;29.40;14.93;;;1.90;99.90;;;;;;5035806;28;20452;-65
2024/01/18 09:46:12;;;;;;;19.30;14.30;;;2.00;99.90;;;;;;5025547;28;20459;-65
2024/01/18 09:48:40;;;;;;;26.63;15.73;;;1.90;99.90;;;;;;5018171;28;20457;-65
2024/01/18 09:51:10;;;;;;;27.93;15.60;;;1.90;99.90;;;;;;5013620;28;20457;-66
2024/01/18 09:53:44;;;;;;;24.67;13.10;;;1.80;99.90;;;;;;5007179;28;20465;-65
2024/01/18 09:56:19;;;;;;;29.47;15.37;;;1.70;99.90;;;;;;5021444;28;20455;-65
2024/01/18 09:58:46;;;;;;;26.43;15.60;;;1.60;99.90;;;;;;5010007;28;20421;-63
2024/01/18 10:01:19;;;;;;;22.50;14.77;;;1.60;99.90;;;;;;5009390;28;20444;-65
2024/01/18 10:03:46;;;;;;;34.87;17.40;;;1.60;99.90;;;;;;5009589;28;20446;-63
2024/01/18 10:06:17;;;;;;;24.97;16.93;;;1.60;99.90;;;;;;5010902;28;20466;-65
2024/01/18 10:08:44;;;;;;;35.10;18.10;;;1.70;99.90;;;;;;5014429;28;20458;-64
2024/01/18 10:11:15;;;;;;;31.63;18.17;;;1.80;99.90;;;;;;5011458;28;20439;-64
2024/01/18 10:13:51;;;;;;;32.37;15.30;;;1.80;99.90;;;;;;5010701;28;20429;-63
2024/01/18 10:16:30;;;;;;;29.10;16.00;;;1.80;99.90;;;;;;5002566;28;20439;-65
2024/01/18 10:18:57;;;;;;;27.63;14.87;;;1.80;99.90;;;;;;5002040;28;20506;-66
2024/01/18 10:21:27;;;;;;;36.90;17.40;;;1.80;99.90;;;;;;5002401;28;20526;-63
2024/01/18 10:23:56;;;;;;;24.20;15.70;;;1.70;99.90;;;;;;5005738;28;20468;-63
2024/01/18 10:26:29;;;;;;;28.23;16.03;;;1.60;99.90;;;;;;5019438;28;20480;-65
2024/01/18 10:28:56;;;;;;;40.87;18.20;;;1.70;99.90;;;;;;5021964;28;20509;-63
2024/01/18 10:31:26;;;;;;;29.50;18.43;;;1.70;99.90;;;;;;5022113;28;20441;-66
2024/01/18 10:33:53;;;;;;;30.43;16.00;;;1.80;99.90;;;;;;5008174;28;20461;-64
2024/01/18 10:36:21;;;;;;;32.60;17.53;;;1.80;99.90;;;;;;5013217;28;20481;-64
2024/01/18 10:38:47;;;;;;;31.47;17.20;;;1.80;99.90;;;;;;5011345;28;20458;-65
2024/01/18 10:41:19;;;;;;;29.13;17.10;;;1.80;99.90;;;;;;5006877;28;20487;-65
2024/01/18 10:43:48;;;;;;;30.80;15.73;;;1.90;99.90;;;;;;5003094;28;20447;-64
2024/01/18 10:46:16;;;;;;;28.27;15.13;;;1.90;99.90;;;;;;5019015;28;20502;-64
2024/01/18 10:48:48;;;;;;;29.47;15.77;;;2.00;99.90;;;;;;5018416;28;20451;-65
2024/01/18 10:51:19;;;;;;;27.97;14.90;;;2.00;99.90;;;;;;5018325;28;20489;-63
2024/01/18 10:53:49;;;;;;;32.80;16.30;;;2.00;99.90;;;;;;5018578;28;20471;-65
2024/01/18 10:56:22;;;;;;;34.87;15.47;;;2.00;99.90;;;;;;5017927;28;20447;-66
2024/01/18 10:58:53;;;;;;;28.70;16.20;;;2.00;99.90;;;;;;5017969;28;20440;-65
2024/01/18 11:01:21;;;;;;;26.40;15.70;;;2.00;99.90;;;;;;5018573;28;20486;-66
2024/01/18 11:03:48;;;;;;;29.10;15.50;;;2.00;99.90;;;;;;5018081;28;20486;-65
2024/01/18 11:06:16;;;;;;;22.43;15.30;;;2.00;99.90;;;;;;5017895;28;20477;-54
2024/01/18 11:08:44;;;;;;;23.67;15.40;;;2.00;99.90;;;;;;5017046;28;20464;-56
2024/01/18 11:11:14;;;;;;;28.43;16.63;;;2.00;99.90;;;;;;5017334;28;20457;-53
2024/01/18 11:13:44;;;;;;;24.67;16.50;;;2.00;99.90;;;;;;5017158;28;20434;-54
2024/01/18 11:16:15;;;;;;;26.73;14.60;;;2.10;99.90;;;;;;5016537;28;20490;-58
2024/01/18 11:18:42;;;;;;;26.00;16.37;;;2.10;99.90;;;;;;5017374;28;20473;-65
2024/01/18 11:21:09;;;;;;;30.30;16.27;;;2.10;99.90;;;;;;5017759;28;20475;-64
2024/01/18 11:23:39;;;;;;;33.67;16.50;;;2.20;99.90;;;;;;5012304;28;20504;-65
2024/01/18 11:26:07;;;;;;;33.53;15.67;;;2.10;99.90;;;;;;5017967;28;20442;-65
2024/01/18 11:28:37;;;;;;;23.70;15.27;;;2.40;99.90;;;;;;5017580;28;20476;-66
2024/01/18 11:31:04;;;;;;;31.27;17.27;;;2.50;99.90;;;;;;5016928;28;20478;-64
2024/01/18 11:33:33;;;;;;;28.90;16.33;;;3.40;99.90;;;;;;5014105;28;20468;-67
2024/01/18 11:36:00;;;;;;;31.67;14.43;;;3.50;99.90;;;;;;5004111;28;20454;-66
2024/01/18 11:38:29;;;;;;;23.40;13.90;;;3.30;99.90;;;;;;5006391;28;20428;-66
2024/01/18 11:40:58;;;;;;;28.63;16.20;;;3.10;99.90;;;;;;4997968;28;20465;-66
2024/01/18 11:43:45;;;;;;;31.80;16.90;;;3.00;99.90;;;;;;5000471;28;21766;-66
2024/01/18 11:46:13;;;;;;;28.17;14.50;;;2.80;99.90;;;;;;5005231;28;20440;-66
2024/01/18 11:48:42;;;;;;;24.73;15.50;;;2.60;99.90;;;;;;4998028;28;20456;-66
2024/01/18 11:51:09;;;;;;;28.17;14.20;;;2.50;99.90;;;;;;4998201;28;20456;-66
2024/01/18 11:53:36;;;;;;;29.20;16.20;;;2.40;99.90;;;;;;4998384;28;20437;-67
2024/01/18 11:56:05;;;;;;;29.43;15.23;;;2.30;99.90;;;;;;4998538;28;20453;-65
2024/01/18 11:58:33;;;;;;;31.00;14.37;;;2.20;99.90;;;;;;4997219;28;20448;-65
2024/01/18 12:01:00;;;;;;;28.67;15.60;;;2.20;99.90;;;;;;5000984;28;20490;-65
2024/01/18 12:03:27;;;;;;;30.50;15.80;;;2.20;99.90;;;;;;5008268;28;20439;-64
2024/01/18 12:05:55;;;;;;;32.20;17.53;;;2.30;99.90;;;;;;5009857;28;20447;-65
2024/01/18 12:08:22;;;;;;;30.53;16.20;;;2.30;99.90;;;;;;5017418;28;20448;-67
2024/01/18 12:10:49;;;;;;;22.87;15.30;;;2.30;99.90;;;;;;5016859;28;20449;-66
2024/01/18 12:13:17;;;;;;;25.40;15.20;;;2.30;99.90;;;;;;5015976;28;20465;-66
2024/01/18 12:15:47;;;;;;;29.00;15.20;;;2.20;99.90;;;;;;5016735;28;20515;-66
2024/01/18 12:18:17;;;;;;;25.17;13.93;;;2.30;99.90;;;;;;5016520;28;20462;-68
2024/01/18 12:20:48;;;;;;;26.43;14.90;;;2.20;99.90;;;;;;5018185;28;20473;-68
2024/01/18 12:23:16;;;;;;;22.43;12.97;;;2.20;99.90;;;;;;5030058;28;20434;-67
2024/01/18 12:25:45;;;;;;;26.70;16.17;;;2.10;99.90;;;;;;5036796;28;20477;-67
2024/01/18 12:28:12;;;;;;;31.17;15.83;;;2.00;99.90;;;;;;5037483;28;20442;-65
2024/01/18 12:30:42;;;;;;;27.57;15.07;;;2.00;99.90;;;;;;5036622;28;20529;-65
2024/01/18 12:33:10;;;;;;;28.03;15.50;;;1.90;99.90;;;;;;5036754;28;20457;-67
2024/01/18 12:35:39;;;;;;;31.30;15.23;;;1.90;99.90;;;;;;5028409;28;20466;-67
2024/01/18 12:38:08;;;;;;;25.60;14.10;;;1.80;99.90;;;;;;5017060;28;20473;-67
2024/01/18 12:40:36;;;;;;;31.20;16.67;;;1.80;99.90;;;;;;5017564;28;20509;-68
2024/01/18 12:43:06;;;;;;;25.70;15.27;;;1.80;99.90;;;;;;5018345;28;20432;-68